Time;durP1;ratioP1;P1;durP2;ratioP2;P2;SDS_P1;SDS_P2;PMS_P1;PMS_P2;Temp;Humidity;BMP_temperature;BMP_pressure;BME280_temperature;BME280_humidity;BME280_pressure;Samples;Min_cycle;Max_cycle;Signal;HPM_P1;HPM_P2
2021/08/05 00:02:14;0.00;0.00;0.62;0.00;0.00;0.62;;;;;22.10;1.00;;;;;;2286994;60;1393;-79
2021/08/05 00:04:41;64985.00;0.22;113.09;0.00;0.00;0.62;;;;;22.10;1.00;;;;;;2276593;61;970;-78
2021/08/05 00:07:08;0.00;0.00;0.62;0.00;0.00;0.62;;;;;22.10;1.00;;;;;;2269991;61;1905;-80
2021/08/05 00:09:35;0.00;0.00;0.62;0.00;0.00;0.62;;;;;22.30;1.00;;;;;;2276732;61;1031;-79
2021/08/05 00:12:02;740.00;0.00;1.90;0.00;0.00;0.62;;;;;21.90;1.00;;;;;;2269974;61;1350;-78
2021/08/05 00:14:29;0.00;0.00;0.62;0.00;0.00;0.62;;;;;21.90;1.00;;;;;;2266696;61;1003;-79
2021/08/05 00:16:56;0.00;0.00;0.62;0.00;0.00;0.62;;;;;22.00;1.00;;;;;;2270026;61;978;-79
2021/08/05 00:19:24;0.00;0.00;0.62;0.00;0.00;0.62;;;;;22.00;1.00;;;;;;2276625;61;1029;-80
2021/08/05 00:21:51;0.00;0.00;0.62;0.00;0.00;0.62;;;;;21.90;1.00;;;;;;2277164;60;1432;-80
2021/08/05 00:24:18;0.00;0.00;0.62;0.00;0.00;0.62;;;;;22.20;1.00;;;;;;2281246;60;1003;-80
2021/08/05 00:26:45;0.00;0.00;0.62;0.00;0.00;0.62;;;;;22.40;1.00;;;;;;2275962;61;1038;-80
2021/08/05 00:29:12;0.00;0.00;0.62;0.00;0.00;0.62;;;;;22.40;1.00;;;;;;2271624;61;2062;-78
2021/08/05 00:31:39;176804.00;0.59;305.99;17010.00;0.06;30.09;;;;;22.40;1.00;;;;;;2266008;61;1344;-80
2021/08/05 00:34:06;0.00;0.00;0.62;0.00;0.00;0.62;;;;;22.40;1.00;;;;;;2272599;61;931;-77
2021/08/05 00:36:34;0.00;0.00;0.62;0.00;0.00;0.62;;;;;22.40;1.00;;;;;;2263379;61;955;-80
2021/08/05 00:39:01;22770.00;0.08;40.07;0.00;0.00;0.62;;;;;22.50;1.00;;;;;;2257181;61;967;-81
2021/08/05 00:41:28;0.00;0.00;0.62;0.00;0.00;0.62;;;;;22.30;1.00;;;;;;2257026;61;1404;-80
2021/08/05 00:43:55;0.00;0.00;0.62;0.00;0.00;0.62;;;;;22.40;1.00;;;;;;2261906;61;1019;-79
2021/08/05 00:46:22;0.00;0.00;0.62;0.00;0.00;0.62;;;;;22.20;1.00;;;;;;2260531;61;1037;-80
2021/08/05 00:48:49;0.00;0.00;0.62;0.00;0.00;0.62;;;;;22.00;1.00;;;;;;2252463;61;1924;-80
2021/08/05 00:51:15;203008.00;0.68;351.10;22638.00;0.08;39.84;;;;;21.60;1.00;;;;;;2252520;61;1393;-79
2021/08/05 00:53:44;83134.00;0.28;144.45;14961.00;0.05;26.54;;;;;21.60;1.00;;;;;;2253812;61;1030;-79
2021/08/05 00:56:11;13389.00;0.04;23.82;0.00;0.00;0.62;;;;;21.70;1.00;;;;;;2264646;61;998;-79
2021/08/05 00:58:38;0.00;0.00;0.62;0.00;0.00;0.62;;;;;21.70;1.00;;;;;;2264630;61;1045;-80
2021/08/05 01:01:11;155915.00;0.52;270.00;0.00;0.00;0.62;;;;;21.60;1.00;;;;;;2252536;61;935;-79
2021/08/05 01:03:42;41262.00;0.14;72.07;0.00;0.00;0.62;;;;;21.60;1.00;;;;;;2253711;61;1377;-80
2021/08/05 01:08:41;0.00;0.00;0.62;0.00;0.00;0.62;;;;;21.80;1.00;;;;;;2286494;60;1957;-79
2021/08/05 01:11:14;0.00;0.00;0.62;0.00;0.00;0.62;;;;;21.90;1.00;;;;;;2273891;61;943;-79
2021/08/05 01:13:51;62185.00;0.21;108.25;0.00;0.00;0.62;;;;;22.00;1.00;;;;;;2267939;61;955;-79
2021/08/05 01:16:23;0.00;0.00;0.62;0.00;0.00;0.62;;;;;22.00;1.00;;;;;;2260257;61;930;-80
2021/08/05 01:18:53;0.00;0.00;0.62;0.00;0.00;0.62;;;;;22.20;1.00;;;;;;2250558;61;997;-78
2021/08/05 01:21:29;0.00;0.00;0.62;0.00;0.00;0.62;;;;;22.20;1.00;;;;;;2257022;61;1369;-79
2021/08/05 01:24:02;0.00;0.00;0.62;0.00;0.00;0.62;;;;;22.20;1.00;;;;;;2257203;61;984;-79
2021/08/05 01:26:38;7730.00;0.03;14.02;0.00;0.00;0.62;;;;;22.40;1.00;;;;;;2260364;61;1037;-79
2021/08/05 01:29:06;59780.00;0.20;104.10;0.00;0.00;0.62;;;;;22.20;1.00;;;;;;2253679;61;1929;-78
2021/08/05 01:31:35;0.00;0.00;0.62;0.00;0.00;0.62;;;;;22.00;1.00;;;;;;2253692;61;1475;-80
2021/08/05 01:34:03;0.00;0.00;0.62;0.00;0.00;0.62;;;;;21.90;1.00;;;;;;2253237;61;970;-79
2021/08/05 01:36:32;0.00;0.00;0.62;0.00;0.00;0.62;;;;;21.60;1.00;;;;;;2260592;61;1008;-81
2021/08/05 01:39:00;0.00;0.00;0.62;0.00;0.00;0.62;;;;;21.30;1.00;;;;;;2261032;61;1011;-80
2021/08/05 01:41:29;118099048.00;393.66;66722856.00;0.00;0.00;0.62;;;;;21.20;1.00;;;;;;2265779;61;1357;-79
2021/08/05 01:43:57;166914.00;0.56;288.95;71871.00;0.24;124.99;;;;;21.50;1.00;;;;;;2352545;39;4162;31
2021/08/05 01:46:25;0.00;0.00;0.62;0.00;0.00;0.62;;;;;21.70;1.00;;;;;;2281239;60;1351;-80
2021/08/05 01:48:55;117961280.00;393.20;66489416.00;17321.00;0.06;30.63;;;;;21.90;1.00;;;;;;2280806;60;1985;-80
2021/08/05 01:51:22;0.00;0.00;0.62;0.00;0.00;0.62;;;;;22.00;1.00;;;;;;2280834;60;1249;-80
2021/08/05 01:53:51;0.00;0.00;0.62;0.00;0.00;0.62;;;;;22.00;1.00;;;;;;2276740;60;976;-80
2021/08/05 01:56:21;118746144.00;395.82;67826648.00;69656.00;0.23;121.17;;;;;21.80;1.00;;;;;;2270028;60;1017;-79
2021/08/05 01:58:49;272976.00;0.91;471.46;76881.00;0.26;133.65;;;;;21.90;1.00;;;;;;2264600;61;999;-78
2021/08/05 02:01:18;163454.00;0.54;282.99;74192.00;0.25;129.00;;;;;21.80;1.00;;;;;;2257909;61;1456;-79
2021/08/05 02:03:52;247465.00;0.82;427.59;87402.00;0.29;151.82;;;;;21.90;1.00;;;;;;2256681;61;978;-79
2021/08/05 02:06:24;173793.00;0.58;300.80;67072.00;0.22;116.70;;;;;21.80;1.00;;;;;;2261207;61;991;-80
2021/08/05 02:08:57;166822.00;0.56;288.79;71225.00;0.24;123.88;;;;;21.80;1.00;;;;;;2264711;61;1979;-79
2021/08/05 02:11:26;298169.00;0.99;514.77;66714.00;0.22;116.08;;;;;21.60;1.00;;;;;;2262588;61;1428;-78
2021/08/05 02:13:55;219780.00;0.73;379.97;65438.00;0.22;113.88;;;;;21.50;1.00;;;;;;2268136;61;1036;-78
2021/08/05 02:16:27;166925.00;0.56;288.97;69400.00;0.23;120.72;;;;;21.50;1.00;;;;;;2269673;61;1036;-80
2021/08/05 02:18:56;584858.00;1.95;1008.08;214748.00;0.72;371.31;;;;;21.60;1.00;;;;;;2276146;61;1009;-77
2021/08/05 02:21:26;194572.00;0.65;336.58;73853.00;0.25;128.42;;;;;21.50;1.00;;;;;;2276321;61;1331;-80
2021/08/05 02:26:21;333754.00;1.11;575.94;88933.00;0.30;154.47;;;;;21.70;1.00;;;;;;2286861;61;1290;-81
2021/08/05 02:28:49;252396.00;0.84;436.07;71222.00;0.24;123.87;;;;;21.60;1.00;;;;;;2285343;61;1918;-83
2021/08/05 02:31:18;216451.00;0.72;374.24;63592.00;0.21;110.69;;;;;21.60;1.00;;;;;;2276676;61;1222;-81
2021/08/05 02:33:47;282235.00;0.94;487.38;61606.00;0.21;107.25;;;;;21.60;1.00;;;;;;2276808;61;945;-83
2021/08/05 02:36:14;286393.00;0.95;494.53;69586.00;0.23;121.05;;;;;21.60;1.00;;;;;;2276753;61;863;-82
2021/08/05 02:38:42;196273.00;0.65;339.51;70972.00;0.24;123.44;;;;;21.60;1.00;;;;;;2269663;61;982;-80
2021/08/05 02:41:10;269809.00;0.90;466.02;68650.00;0.23;119.43;;;;;21.70;1.00;;;;;;2275624;61;924;-78
2021/08/05 02:43:38;228774.00;0.76;395.44;71867.00;0.24;124.99;;;;;21.50;1.00;;;;;;2268208;61;1555;-80
2021/08/05 02:46:06;191768.00;0.64;331.75;66651.00;0.22;115.97;;;;;21.70;1.00;;;;;;2267292;61;957;-79
2021/08/05 02:48:36;202050.00;0.67;349.45;66678.00;0.22;116.02;;;;;21.70;1.00;;;;;;2268868;61;1923;-77
2021/08/05 02:51:06;243109.00;0.81;420.10;69073.00;0.23;120.16;;;;;21.70;1.00;;;;;;2266252;61;1000;-79
2021/08/05 02:53:33;219123.00;0.73;378.83;69622.00;0.23;121.11;;;;;21.50;1.00;;;;;;2269702;61;1429;-80
2021/08/05 02:56:01;220323.00;0.73;380.90;72514.00;0.24;126.10;;;;;21.30;1.00;;;;;;2269775;61;977;-80
2021/08/05 02:58:30;185221.00;0.62;320.48;64838.00;0.22;112.84;;;;;21.30;1.00;;;;;;2268007;61;1020;-78
2021/08/05 03:00:57;198974.00;0.66;344.16;78594.00;0.26;136.61;;;;;21.30;1.00;;;;;;2270888;61;1013;-79
2021/08/05 03:03:25;215019.00;0.72;371.77;71900.00;0.24;125.04;;;;;21.20;1.00;;;;;;2273951;61;1369;-80
2021/08/05 03:05:52;264911.00;0.88;457.59;76690.00;0.26;133.32;;;;;21.30;1.00;;;;;;2273874;61;1025;-79
2021/08/05 03:08:21;190547.00;0.64;329.65;59568.00;0.20;103.73;;;;;21.50;1.00;;;;;;2280808;61;1999;-79
2021/08/05 03:10:48;252569.00;0.84;436.37;72055.00;0.24;125.31;;;;;21.50;1.00;;;;;;2280774;61;1008;-79
2021/08/05 03:15:43;184213.00;0.61;318.74;60092.00;0.20;104.64;;;;;21.30;1.00;;;;;;2286869;60;1383;-79
2021/08/05 03:18:10;216265.00;0.72;373.92;79601.00;0.27;138.35;;;;;21.30;1.00;;;;;;2281490;60;955;-80
2021/08/05 03:20:37;257478.00;0.86;444.81;66667.00;0.22;116.00;;;;;21.40;1.00;;;;;;2274971;60;992;-80
2021/08/05 03:23:04;117008488.00;390.03;64889856.00;75056.00;0.25;130.50;;;;;21.20;1.00;;;;;;2275004;60;1479;-77
2021/08/05 03:25:32;182528.00;0.61;315.84;74813.00;0.25;130.08;;;;;21.10;1.00;;;;;;2283959;60;925;-79
2021/08/05 03:27:59;255694.00;0.85;441.74;67948.00;0.23;118.21;;;;;21.40;1.00;;;;;;2278116;60;2008;-78
2021/08/05 03:30:26;523648.00;1.75;902.55;120284.00;0.40;208.57;;;;;21.40;1.00;;;;;;2278201;60;985;-78
2021/08/05 03:32:53;283098.00;0.94;488.86;72615.00;0.24;126.28;;;;;21.60;1.00;;;;;;2276587;60;1272;-79
2021/08/05 03:35:20;453997.00;1.51;782.66;67803.00;0.23;117.96;;;;;21.50;1.00;;;;;;2285112;60;962;-81
2021/08/05 03:37:47;175239.00;0.58;303.29;73693.00;0.25;128.14;;;;;21.50;1.00;;;;;;2278071;60;1027;-80
2021/08/05 03:40:14;248991.00;0.83;430.22;73574.00;0.25;127.94;;;;;21.50;1.00;;;;;;2284133;60;949;-80
2021/08/05 03:42:42;257399.00;0.86;444.68;74616.00;0.25;129.74;;;;;21.40;1.00;;;;;;2274830;60;1330;-76
2021/08/05 03:45:10;227723.00;0.76;393.63;71365.00;0.24;124.12;;;;;21.40;1.00;;;;;;2271275;61;967;-77
2021/08/05 03:47:37;323514.00;1.08;558.34;73287.00;0.24;127.44;;;;;21.20;1.00;;;;;;2264578;61;938;-77
2021/08/05 03:50:05;207877.00;0.69;359.48;73385.00;0.24;127.61;;;;;21.10;1.00;;;;;;2260156;61;2014;-78
2021/08/05 03:52:32;244776.00;0.82;422.97;72529.00;0.24;126.13;;;;;21.00;1.00;;;;;;2260122;61;1366;-77
2021/08/05 03:54:59;191609.00;0.64;331.48;69574.00;0.23;121.02;;;;;21.00;1.00;;;;;;2256384;61;969;-79
2021/08/05 03:57:26;290286.00;0.97;501.22;67646.00;0.23;117.69;;;;;21.10;1.00;;;;;;2256710;61;1010;-78
2021/08/05 03:59:54;178327.00;0.59;308.61;74501.00;0.25;129.54;;;;;21.10;1.00;;;;;;2256660;61;1010;-77
2021/08/05 04:02:21;245947.00;0.82;424.98;76903.00;0.26;133.69;;;;;21.20;1.00;;;;;;2257100;61;1393;-77
2021/08/05 04:04:48;192940.00;0.64;333.77;67736.00;0.23;117.85;;;;;21.30;1.00;;;;;;2258320;61;973;-78
2021/08/05 04:07:15;223170.00;0.74;385.80;58572.00;0.20;102.01;;;;;21.20;1.00;;;;;;2262405;61;1056;-78
2021/08/05 04:09:43;503775.00;1.68;868.32;244979.00;0.82;423.32;;;;;21.30;1.00;;;;;;2262489;61;2004;-78
2021/08/05 04:12:10;231727.00;0.77;400.52;70771.00;0.24;123.09;;;;;21.30;1.00;;;;;;2267123;60;1374;-79
2021/08/05 04:14:37;244699.00;0.82;422.83;71969.00;0.24;125.16;;;;;21.40;1.00;;;;;;2280986;60;1032;-78
2021/08/05 04:17:05;259792.00;0.87;448.79;71821.00;0.24;124.91;;;;;21.50;1.00;;;;;;2271951;61;1013;-77
2021/08/05 04:19:32;200873.00;0.67;347.43;69435.00;0.23;120.78;;;;;21.40;1.00;;;;;;2283127;60;1036;-80
2021/08/05 04:21:59;259078.00;0.86;447.56;69642.00;0.23;121.14;;;;;21.50;1.00;;;;;;2274222;60;1282;-79
2021/08/05 04:24:26;185495.00;0.62;320.95;69598.00;0.23;121.07;;;;;21.70;1.00;;;;;;2278072;60;939;-83
2021/08/05 04:26:53;312264.00;1.04;539.00;96144.00;0.32;166.92;;;;;21.90;1.00;;;;;;2274855;60;954;-80
2021/08/05 04:29:20;174621.00;0.58;302.23;69065.00;0.23;120.14;;;;;21.80;1.00;;;;;;2274679;60;2001;-79
2021/08/05 04:31:47;271090.00;0.90;468.22;69347.00;0.23;120.63;;;;;22.00;1.00;;;;;;2277514;60;1427;-78
2021/08/05 04:34:15;166426.00;0.55;288.11;71676.00;0.24;124.66;;;;;22.20;1.00;;;;;;2274467;60;950;-80
2021/08/05 04:36:42;299096.00;1.00;516.37;71330.00;0.24;124.06;;;;;22.20;1.00;;;;;;2277976;60;949;-81
2021/08/05 04:39:09;374071.00;1.25;645.23;80862.00;0.27;140.53;;;;;22.30;1.00;;;;;;2283809;60;1032;-79
2021/08/05 04:44:04;239902.00;0.80;414.58;74416.00;0.25;129.39;;;;;22.10;1.00;;;;;;2286398;60;1369;-81
2021/08/05 04:46:31;184338.00;0.61;318.96;74440.00;0.25;129.43;;;;;22.10;1.00;;;;;;2285055;60;1013;-80
2021/08/05 04:48:58;399310.00;1.33;688.62;164843.00;0.55;285.38;;;;;22.20;1.00;;;;;;2274484;60;1925;-80
2021/08/05 04:51:26;196523.00;0.66;339.94;71121.00;0.24;123.70;;;;;22.00;1.00;;;;;;2284901;60;1340;-80
2021/08/05 04:53:53;241172.00;0.80;416.77;71971.00;0.24;125.17;;;;;21.80;1.00;;;;;;2274532;60;1008;-80
2021/08/05 04:56:20;174258.00;0.58;301.60;74409.00;0.25;129.38;;;;;21.80;1.00;;;;;;2272026;61;940;-79
2021/08/05 04:58:46;214091.00;0.71;370.18;70341.00;0.23;122.35;;;;;21.60;1.00;;;;;;2264310;61;966;-79
2021/08/05 05:01:13;178619.00;0.60;309.11;75893.00;0.25;131.94;;;;;21.60;1.00;;;;;;2258032;61;941;-82
2021/08/05 05:03:40;169045.00;0.56;292.62;68009.00;0.23;118.32;;;;;21.60;1.00;;;;;;2256305;61;970;-81
2021/08/05 05:06:07;165429.00;0.55;286.39;67123.00;0.22;116.79;;;;;21.50;1.00;;;;;;2256441;61;957;-81
2021/08/05 05:08:35;268583.00;0.90;463.91;67213.00;0.22;116.94;;;;;21.50;1.00;;;;;;2256400;61;1920;-80
2021/08/05 05:11:02;158171.00;0.53;273.89;62713.00;0.21;109.17;;;;;21.50;1.00;;;;;;2256528;61;1096;-81
2021/08/05 05:15:58;348612.00;1.16;601.48;113407.00;0.38;196.71;;;;;21.80;1.00;;;;;;2286283;60;1496;-81
2021/08/05 05:18:26;338978.00;1.13;584.92;66810.00;0.22;116.25;;;;;21.80;1.00;;;;;;2277806;60;937;-80
2021/08/05 05:20:55;234018.00;0.78;404.46;70094.00;0.23;121.92;;;;;21.90;1.00;;;;;;2284832;60;957;-79
2021/08/05 05:25:51;203241.00;0.68;351.50;72075.00;0.24;125.35;;;;;22.20;1.00;;;;;;2286576;60;1388;-81
2021/08/05 05:28:18;322542.00;1.08;556.67;63934.00;0.21;111.28;;;;;22.20;1.00;;;;;;2274455;60;1016;-79
2021/08/05 05:30:45;296949.00;0.99;512.68;66575.00;0.22;115.84;;;;;22.50;1.00;;;;;;2274234;60;1939;-81
2021/08/05 05:33:12;399601.00;1.33;689.12;70984.00;0.24;123.46;;;;;22.80;1.00;;;;;;2274421;60;1455;-79
2021/08/05 05:35:39;188693.00;0.63;326.46;53557.00;0.18;93.34;;;;;22.70;1.00;;;;;;2284781;60;953;-78
2021/08/05 05:38:07;218806.00;0.73;378.29;66007.00;0.22;114.86;;;;;22.80;1.00;;;;;;2268172;61;933;-77
2021/08/05 05:40:35;621458.00;2.07;1071.29;96266.00;0.32;167.13;;;;;23.10;1.00;;;;;;2259965;61;959;-81
2021/08/05 05:43:04;234209.00;0.78;404.79;70573.00;0.24;122.75;;;;;23.10;1.00;;;;;;2252031;61;1220;-81
2021/08/05 05:45:32;280423.00;0.93;484.26;66478.00;0.22;115.67;;;;;22.90;1.00;;;;;;2252359;61;1041;-81
2021/08/05 05:48:00;289103.00;0.96;499.19;71380.00;0.24;124.15;;;;;22.90;1.00;;;;;;2248959;61;1022;-80
2021/08/05 05:50:28;418063.00;1.39;720.86;85483.00;0.28;148.51;;;;;22.90;1.00;;;;;;2245666;61;2016;-81
2021/08/05 05:57:50;217198.00;0.72;375.52;82657.00;0.28;143.63;;;;;22.90;1.00;;;;;;2286554;60;1361;-80
2021/08/05 06:00:19;295622.00;0.99;510.39;74172.00;0.25;128.97;;;;;22.90;1.00;;;;;;2277770;60;977;-80
2021/08/05 06:02:46;203224.00;0.68;351.47;64300.00;0.21;111.91;;;;;22.70;1.00;;;;;;2280317;60;1346;-80
2021/08/05 06:05:13;314761.00;1.05;543.29;68155.00;0.23;118.57;;;;;22.80;1.00;;;;;;2270496;60;945;-81
2021/08/05 06:07:48;301616.00;1.01;520.70;68573.00;0.23;119.29;;;;;22.70;1.00;;;;;;2280932;60;988;-79
2021/08/05 06:10:17;324518.00;1.08;560.06;46783.00;0.16;81.62;;;;;22.80;1.00;;;;;;2270349;60;1919;-82
2021/08/05 06:12:44;189765.00;0.63;328.30;0.00;0.00;0.62;;;;;22.90;1.00;;;;;;2280108;60;1284;-83
2021/08/05 06:15:12;101052.00;0.34;175.39;0.00;0.00;0.62;;;;;23.00;1.00;;;;;;2270298;60;985;-79
2021/08/05 06:17:41;146418.00;0.49;253.63;0.00;0.00;0.62;;;;;23.20;1.00;;;;;;2270176;60;969;-84
2021/08/05 06:20:13;73350.00;0.24;127.55;0.00;0.00;0.62;;;;;24.30;1.00;;;;;;2280506;60;910;-80
2021/08/05 06:22:42;139226.00;0.46;241.24;0.00;0.00;0.62;;;;;25.90;1.00;;;;;;2276684;61;1436;-80
2021/08/05 06:25:10;135890.00;0.45;235.49;0.00;0.00;0.62;;;;;27.70;1.00;;;;;;2274144;61;1141;-79
2021/08/05 06:27:38;0.00;0.00;0.62;0.00;0.00;0.62;;;;;29.10;1.00;;;;;;2274015;61;1006;-82
2021/08/05 06:30:07;0.00;0.00;0.62;0.00;0.00;0.62;;;;;30.40;1.00;;;;;;2274329;61;2001;-83
2021/08/05 06:32:34;11149.00;0.04;19.94;0.00;0.00;0.62;;;;;31.10;1.00;;;;;;2277645;60;1424;-82
2021/08/05 06:37:31;384866.00;1.28;663.79;55155.00;0.18;96.10;;;;;32.10;1.00;;;;;;2287278;60;1238;-82
2021/08/05 06:39:59;277048.00;0.92;478.46;0.00;0.00;0.62;;;;;32.60;1.00;;;;;;2285361;60;1027;-83
2021/08/05 06:42:26;71980.00;0.24;125.18;0.00;0.00;0.62;;;;;33.00;1.00;;;;;;2276663;61;1339;-82
2021/08/05 06:44:53;327606.00;1.09;565.37;0.00;0.00;0.62;;;;;32.50;1.00;;;;;;2266911;61;971;-82
2021/08/05 06:47:20;70992.00;0.24;123.47;0.00;0.00;0.62;;;;;31.50;1.00;;;;;;2276657;61;945;-81
2021/08/05 06:49:47;146082.00;0.49;253.05;0.00;0.00;0.62;;;;;31.20;1.00;;;;;;2273132;61;2001;-83
2021/08/05 06:52:14;135474.00;0.45;234.77;0.00;0.00;0.62;;;;;30.50;1.00;;;;;;2273341;61;1333;-79
2021/08/05 06:54:42;231660.00;0.77;400.40;0.00;0.00;0.62;;;;;30.50;1.00;;;;;;2276512;61;1119;-80
2021/08/05 06:57:09;199127.00;0.66;344.42;0.00;0.00;0.62;;;;;30.50;1.00;;;;;;2273272;61;985;-81
2021/08/05 06:59:37;234200.00;0.78;404.77;0.00;0.00;0.62;;;;;29.90;1.00;;;;;;2277471;60;1023;-82
2021/08/05 07:02:05;262272.00;0.87;453.06;0.00;0.00;0.62;;;;;28.90;1.00;;;;;;2285190;60;1348;-83
2021/08/05 07:04:32;266797.00;0.89;460.84;0.00;0.00;0.62;;;;;28.30;1.00;;;;;;2285384;60;984;-83
2021/08/05 07:06:59;89865.00;0.30;156.07;0.00;0.00;0.62;;;;;27.70;1.00;;;;;;2285355;60;996;-83
2021/08/05 07:09:26;169340.00;0.56;293.13;0.00;0.00;0.62;;;;;26.80;1.00;;;;;;2281330;60;2005;-81
2021/08/05 07:11:54;39178.00;0.13;68.47;0.00;0.00;0.62;;;;;26.20;1.00;;;;;;2279989;61;1400;-81
2021/08/05 07:14:21;128789.00;0.43;223.24;0.00;0.00;0.62;;;;;26.60;1.00;;;;;;2270647;61;981;-80
2021/08/05 07:16:48;86305.00;0.29;149.93;0.00;0.00;0.62;;;;;26.90;1.00;;;;;;2270504;61;983;-82
2021/08/05 07:19:15;93847.00;0.31;162.95;0.00;0.00;0.62;;;;;27.10;1.00;;;;;;2270488;61;1042;-80
2021/08/05 07:21:42;96446.00;0.32;167.44;0.00;0.00;0.62;;;;;27.30;1.00;;;;;;2280534;61;1518;-81
2021/08/05 07:24:12;147517.00;0.49;255.53;0.00;0.00;0.62;;;;;27.70;1.00;;;;;;2273818;61;1069;-79
2021/08/05 07:26:38;249335.00;0.83;430.81;53427.00;0.18;93.11;;;;;27.60;1.00;;;;;;2273876;61;957;-79
2021/08/05 07:29:07;79007.00;0.26;137.32;0.00;0.00;0.62;;;;;27.60;1.00;;;;;;2280399;60;1993;-81
2021/08/05 07:31:34;90910.00;0.30;157.88;0.00;0.00;0.62;;;;;27.30;1.00;;;;;;2285194;60;1474;-82
2021/08/05 07:34:01;66794.00;0.22;116.22;0.00;0.00;0.62;;;;;27.40;1.00;;;;;;2281549;60;984;-79
2021/08/05 07:36:28;73073.00;0.24;127.07;0.00;0.00;0.62;;;;;28.20;1.00;;;;;;2284292;60;1040;-82
2021/08/05 07:38:56;76228.00;0.25;132.52;0.00;0.00;0.62;;;;;28.30;1.00;;;;;;2285214;60;1016;-80
2021/08/05 07:43:51;55577.00;0.19;96.83;0.00;0.00;0.62;;;;;28.20;1.00;;;;;;2286454;60;1301;-78
2021/08/05 07:46:20;161149.00;0.54;279.02;0.00;0.00;0.62;;;;;28.90;1.00;;;;;;2276448;61;1005;-81
2021/08/05 07:48:47;179857.00;0.60;311.24;0.00;0.00;0.62;;;;;29.10;1.00;;;;;;2264130;61;985;-81
2021/08/05 07:53:42;72638.00;0.24;126.32;0.00;0.00;0.62;;;;;30.20;1.00;;;;;;2282653;60;1406;-80
2021/08/05 07:58:37;60189.00;0.20;104.80;0.00;0.00;0.62;;;;;30.60;1.00;;;;;;2278839;60;1422;-81
2021/08/05 08:01:06;92008.00;0.31;159.77;0.00;0.00;0.62;;;;;30.80;1.00;;;;;;2273146;61;984;-82
2021/08/05 08:03:34;37333.00;0.12;65.27;0.00;0.00;0.62;;;;;30.90;1.00;;;;;;2262500;60;1425;-82
2021/08/05 08:08:31;388031.00;1.29;669.23;0.00;0.00;0.62;;;;;30.40;1.00;;;;;;2278767;60;1366;-82
2021/08/05 08:10:58;153320.00;0.51;265.53;0.00;0.00;0.62;;;;;29.50;1.00;;;;;;2276937;60;1915;-80
2021/08/05 08:13:25;135789.00;0.45;235.31;0.00;0.00;0.62;;;;;29.30;1.00;;;;;;2277097;60;1435;-80
2021/08/05 08:15:52;119943.00;0.40;207.98;0.00;0.00;0.62;;;;;28.80;1.00;;;;;;2269945;61;1012;-80
2021/08/05 08:18:19;136362.00;0.45;236.30;0.00;0.00;0.62;;;;;28.60;1.00;;;;;;2388536;39;4137;31
2021/08/05 08:20:49;332968.00;1.11;574.59;0.00;0.00;0.62;;;;;28.10;1.00;;;;;;2269162;61;1350;-81
2021/08/05 08:25:43;580630.00;1.94;1000.79;20451.00;0.07;36.05;;;;;27.40;1.00;;;;;;2278543;60;1389;-79
2021/08/05 08:28:10;696727.00;2.32;1201.56;59592.00;0.20;103.77;;;;;27.30;1.00;;;;;;2265533;61;979;-82
2021/08/05 08:30:37;550206.00;1.83;948.31;21326.00;0.07;37.57;;;;;26.70;1.00;;;;;;2276274;60;1998;-80
2021/08/05 08:33:04;415747.00;1.39;716.88;20209.00;0.07;35.63;;;;;26.80;1.00;;;;;;2269969;61;1379;-81
2021/08/05 08:38:06;147588.00;0.49;255.65;0.00;0.00;0.62;;;;;27.80;1.00;;;;;;2275733;61;1435;-80
2021/08/05 08:40:35;153721.00;0.51;266.22;0.00;0.00;0.62;;;;;28.00;1.00;;;;;;2268147;61;1015;-81
2021/08/05 08:43:04;95032.00;0.32;165.00;0.00;0.00;0.62;;;;;28.40;1.00;;;;;;2261684;60;1721;-81
2021/08/05 08:45:32;0.00;0.00;0.62;0.00;0.00;0.62;;;;;28.90;1.00;;;;;;2265128;60;1020;-81
2021/08/05 08:48:00;121994.00;0.41;211.52;0.00;0.00;0.62;;;;;29.40;1.00;;;;;;2268294;60;1007;-82
2021/08/05 08:50:30;0.00;0.00;0.62;0.00;0.00;0.62;;;;;30.00;1.00;;;;;;2261204;61;2002;-83
2021/08/05 08:53:05;0.00;0.00;0.62;0.00;0.00;0.62;;;;;30.20;1.00;;;;;;2257845;61;1428;-79
2021/08/05 08:55:33;0.00;0.00;0.62;0.00;0.00;0.62;;;;;29.90;1.00;;;;;;2264544;61;1069;-81
2021/08/05 08:58:02;0.00;0.00;0.62;0.00;0.00;0.62;;;;;30.00;1.00;;;;;;2262983;61;977;-82
2021/08/05 09:00:30;55680.00;0.19;97.01;0.00;0.00;0.62;;;;;30.10;1.00;;;;;;2272680;61;985;-79
2021/08/05 09:02:58;0.00;0.00;0.62;0.00;0.00;0.62;;;;;29.80;1.00;;;;;;2265675;61;1463;-82
2021/08/05 09:05:26;0.00;0.00;0.62;0.00;0.00;0.62;;;;;29.20;1.00;;;;;;2271918;61;907;-79
2021/08/05 09:07:53;22510.00;0.08;39.62;0.00;0.00;0.62;;;;;29.20;1.00;;;;;;2265632;61;997;-80
2021/08/05 09:15:33;0.00;0.00;0.62;0.00;0.00;0.62;;;;;29.10;1.00;;;;;;2282491;60;1212;-85
2021/08/05 09:18:00;63332.00;0.21;110.24;0.00;0.00;0.62;;;;;29.20;1.00;;;;;;2273534;60;963;-84
2021/08/05 09:30:19;0.00;0.00;0.62;0.00;0.00;0.62;;;;;30.10;1.00;;;;;;2490787;39;3512;31
2021/08/05 09:32:48;312579.00;1.04;539.54;50322.00;0.17;87.74;;;;;30.40;1.00;;;;;;2268831;61;1383;-85
2021/08/05 09:40:18;62894.00;0.21;109.48;0.00;0.00;0.62;;;;;29.60;1.00;;;;;;2288203;60;1342;-85
2021/08/05 09:45:16;173609.00;0.58;300.48;74103.00;0.25;128.85;;;;;28.90;1.00;;;;;;2518949;39;3573;31
2021/08/05 09:50:13;165811.00;0.55;287.05;65679.00;0.22;114.29;;;;;27.20;1.00;;;;;;2290397;60;1957;-87
2021/08/05 09:52:40;208664.00;0.70;360.84;83716.00;0.28;145.46;;;;;27.00;1.00;;;;;;2279705;60;1361;-84
2021/08/05 09:55:10;179618.00;0.60;310.83;0.00;0.00;0.62;;;;;26.70;1.00;;;;;;2405590;39;3843;31
2021/08/05 09:57:41;152090.00;0.51;263.41;0.00;0.00;0.62;;;;;26.60;1.00;;;;;;2273806;61;1367;-84
2021/08/05 10:10:01;0.00;0.00;0.62;0.00;0.00;0.62;;;;;28.00;1.00;;;;;;2286424;60;1972;-84
2021/08/05 10:17:25;0.00;0.00;0.62;0.00;0.00;0.62;;;;;28.30;1.00;;;;;;2285790;60;1384;-83
2021/08/05 10:19:53;0.00;0.00;0.62;0.00;0.00;0.62;;;;;28.50;1.00;;;;;;2274082;60;959;-85
2021/08/05 10:22:20;0.00;0.00;0.62;0.00;0.00;0.62;;;;;28.80;1.00;;;;;;2284341;60;1264;-84
2021/08/05 10:24:49;0.00;0.00;0.62;0.00;0.00;0.62;;;;;28.90;1.00;;;;;;2273975;60;1034;-84
2021/08/05 10:27:20;0.00;0.00;0.62;0.00;0.00;0.62;;;;;29.20;1.00;;;;;;2279775;60;969;-84
2021/08/05 10:29:50;0.00;0.00;0.62;0.00;0.00;0.62;;;;;28.90;1.00;;;;;;2270076;60;1924;-83
2021/08/05 10:32:18;45998.00;0.15;80.26;0.00;0.00;0.62;;;;;29.00;1.00;;;;;;2271320;61;1212;-84
2021/08/05 10:34:46;0.00;0.00;0.62;0.00;0.00;0.62;;;;;29.20;1.00;;;;;;2262235;61;1009;-83
2021/08/05 10:37:14;0.00;0.00;0.62;0.00;0.00;0.62;;;;;29.40;1.00;;;;;;2259388;61;993;-84
2021/08/05 10:39:43;0.00;0.00;0.62;0.00;0.00;0.62;;;;;29.40;1.00;;;;;;2253548;61;971;-85
2021/08/05 10:42:12;175562.00;0.59;303.85;0.00;0.00;0.62;;;;;29.60;1.00;;;;;;2256172;61;1262;-84
2021/08/05 10:49:36;27846.00;0.09;48.85;0.00;0.00;0.62;;;;;29.80;1.00;;;;;;2286231;60;1101;-84
2021/08/05 10:54:53;0.00;0.00;0.62;0.00;0.00;0.62;;;;;29.70;1.00;;;;;;2285951;60;1342;-82
2021/08/05 11:00:02;0.00;0.00;0.62;0.00;0.00;0.62;;;;;29.50;1.00;;;;;;2286083;60;1404;-83
2021/08/05 11:02:45;0.00;0.00;0.62;0.00;0.00;0.62;;;;;28.90;1.00;;;;;;2284422;60;1391;-83
2021/08/05 11:07:42;0.00;0.00;0.62;0.00;0.00;0.62;;;;;29.10;1.00;;;;;;2286346;60;1380;-82
2021/08/05 11:10:25;25133.00;0.08;44.16;0.00;0.00;0.62;;;;;28.60;1.00;;;;;;2284637;60;1920;-85
2021/08/05 11:12:54;0.00;0.00;0.62;0.00;0.00;0.62;;;;;27.60;1.00;;;;;;2264116;61;1147;-85
2021/08/05 11:15:53;0.00;0.00;0.62;0.00;0.00;0.62;;;;;27.70;1.00;;;;;;2264308;61;983;-84
2021/08/05 11:21:03;0.00;0.00;0.62;0.00;0.00;0.62;;;;;28.10;1.00;;;;;;2279023;61;1362;-82
2021/08/05 11:23:42;22051.00;0.07;38.82;0.00;0.00;0.62;;;;;28.10;1.00;;;;;;2265590;61;1326;-82
2021/08/05 11:26:10;257366.00;0.86;444.62;58599.00;0.20;102.05;;;;;28.30;1.00;;;;;;2262447;61;904;-83
2021/08/05 11:28:46;316009.00;1.05;545.44;67047.00;0.22;116.66;;;;;27.90;1.00;;;;;;2262305;61;950;-84
2021/08/05 11:33:52;52625.00;0.18;91.73;0.00;0.00;0.62;;;;;28.00;1.00;;;;;;2282415;61;1429;-85
2021/08/05 11:36:22;85399.00;0.28;148.36;20242.00;0.07;35.69;;;;;28.40;1.00;;;;;;2276429;61;1029;-85